Time;durP1;ratioP1;P1;durP2;ratioP2;P2;SDS_P1;SDS_P2;PMS_P1;PMS_P2;Temp;Humidity;BMP_temperature;BMP_pressure;BME280_temperature;BME280_humidity;BME280_pressure;Samples;Min_cycle;Max_cycle;Signal;HPM_P1;HPM_P2
2022/03/30 00:01:07;;;;;;;2.20;2.10;;;;;;;-143.85;100.00;70650.75;5047892;28;20080;-79
2022/03/30 00:03:33;;;;;;;1.23;1.17;;;;;;;-143.85;100.00;70650.75;5032354;28;20060;-80
2022/03/30 00:05:58;;;;;;;2.85;1.70;;;;;;;-143.85;100.00;70650.75;5031545;28;20017;-79
2022/03/30 00:08:24;;;;;;;3.75;2.45;;;;;;;-143.85;100.00;70650.75;5031733;28;20112;-80
2022/03/30 00:10:49;;;;;;;3.58;1.13;;;;;;;-143.85;100.00;70650.75;5032796;28;20036;-80
2022/03/30 00:13:15;;;;;;;2.03;1.92;;;;;;;-143.85;100.00;70650.75;5031451;28;20028;-80
2022/03/30 00:15:41;;;;;;;2.08;1.42;;;;;;;-143.85;100.00;70650.75;5031882;28;20124;-80
2022/03/30 00:18:06;;;;;;;3.55;2.95;;;;;;;-143.85;100.00;70650.75;5031439;28;20480;-79
2022/03/30 00:20:32;;;;;;;2.35;2.25;;;;;;;-143.85;100.00;70650.75;5032371;28;20075;-79
2022/03/30 00:22:57;;;;;;;2.38;2.17;;;;;;;-143.85;100.00;70650.75;5031713;28;20052;-80
2022/03/30 00:25:23;;;;;;;3.45;1.95;;;;;;;-143.85;100.00;70650.75;5032612;28;20037;-79
2022/03/30 00:27:48;;;;;;;0.75;0.75;;;;;;;-143.85;100.00;70650.75;5031622;28;20014;-79
2022/03/30 00:30:16;;;;;;;1.05;0.98;;;;;;;-143.85;100.00;70650.75;5032559;28;20029;-80
2022/03/30 00:32:42;;;;;;;2.42;1.67;;;;;;;-143.85;100.00;70650.75;5033006;28;20026;-79
2022/03/30 00:35:08;;;;;;;2.35;2.17;;;;;;;-143.85;100.00;70650.75;5032859;28;20028;-80
2022/03/30 00:37:34;;;;;;;1.13;1.13;;;;;;;-143.85;100.00;70650.75;5031407;28;20029;-80
2022/03/30 00:40:00;;;;;;;1.55;1.17;;;;;;;-143.85;100.00;70650.75;5032887;28;20021;-80
2022/03/30 00:42:26;;;;;;;0.60;0.60;;;;;;;-143.85;100.00;70650.75;5031369;28;20117;-79
2022/03/30 00:44:53;;;;;;;2.08;1.98;;;;;;;-143.85;100.00;70650.75;5032491;28;20031;-80
2022/03/30 00:47:27;;;;;;;3.05;1.98;;;;;;;-143.85;100.00;70650.75;5032110;28;20481;-80
2022/03/30 00:49:54;;;;;;;0.77;0.77;;;;;;;-143.85;100.00;70650.75;5033821;28;20025;-81
2022/03/30 00:52:20;;;;;;;1.98;1.83;;;;;;;-143.85;100.00;70650.75;5036266;28;20109;-81
2022/03/30 00:54:49;;;;;;;0.70;0.70;;;;;;;-143.85;100.00;70650.75;5035500;28;20032;-80
2022/03/30 00:57:17;;;;;;;0.50;0.50;;;;;;;-143.85;100.00;70650.75;5036111;28;20021;-82
2022/03/30 00:59:43;;;;;;;2.05;1.92;;;;;;;-143.85;100.00;70650.75;5034561;28;20033;-80
2022/03/30 01:02:09;;;;;;;1.83;1.45;;;;;;;-143.85;100.00;70650.75;5034704;28;20052;-81
2022/03/30 01:04:35;;;;;;;0.68;0.68;;;;;;;-143.85;100.00;70650.75;5035095;28;20029;-82
2022/03/30 01:07:01;;;;;;;1.52;1.42;;;;;;;-143.85;100.00;70650.75;5034801;28;20112;-81
2022/03/30 01:09:27;;;;;;;3.85;1.10;;;;;;;-143.85;100.00;70650.75;5034756;28;20060;-80
2022/03/30 01:11:53;;;;;;;3.60;1.92;;;;;;;-143.85;100.00;70650.75;5034756;28;20033;-81
2022/03/30 01:14:19;;;;;;;1.38;1.30;;;;;;;-143.85;100.00;70650.75;5034470;28;20079;-80
2022/03/30 01:16:46;;;;;;;0.43;0.43;;;;;;;-143.85;100.00;70650.75;5035037;28;20037;-80
2022/03/30 01:19:11;;;;;;;2.10;1.92;;;;;;;-143.85;100.00;70650.75;5034501;28;20060;-81
2022/03/30 01:21:39;;;;;;;2.97;1.33;;;;;;;-143.85;100.00;70650.75;5034254;28;20053;-82
2022/03/30 01:24:06;;;;;;;1.97;1.63;;;;;;;-143.85;100.00;70650.75;5034906;28;20022;-82
2022/03/30 01:26:31;;;;;;;1.13;1.13;;;;;;;-143.85;100.00;70650.75;5034502;28;20048;-82
2022/03/30 01:28:57;;;;;;;2.10;1.92;;;;;;;-143.85;100.00;70650.75;5034356;28;20029;-81
2022/03/30 01:34:07;;;;;;;4.32;1.38;;;;;;;-143.85;100.00;70650.75;5035495;28;20037;-82
2022/03/30 01:36:35;;;;;;;11.80;2.10;;;;;;;-143.85;100.00;70650.75;5034534;28;20052;-82
2022/03/30 01:39:04;;;;;;;1.25;1.25;;;;;;;-143.85;100.00;70650.75;5035413;28;20108;-81
2022/03/30 01:41:30;;;;;;;0.88;0.88;;;;;;;-143.85;100.00;70650.75;5050611;28;20469;-81
2022/03/30 01:43:56;;;;;;;1.13;1.13;;;;;;;-143.85;100.00;70650.75;5034248;28;20086;-80
2022/03/30 01:46:22;;;;;;;2.40;1.33;;;;;;;-143.85;100.00;70650.75;5033755;28;20111;-82
2022/03/30 01:48:48;;;;;;;0.75;0.68;;;;;;;-143.85;100.00;70650.75;5035583;28;20036;-81
2022/03/30 01:51:13;;;;;;;1.90;1.80;;;;;;;-143.85;100.00;70650.75;5034048;28;20025;-81
2022/03/30 01:53:39;;;;;;;7.35;2.55;;;;;;;-143.85;100.00;70650.75;5035443;28;20117;-81
2022/03/30 01:56:04;;;;;;;1.95;1.85;;;;;;;-143.85;100.00;70650.75;5036389;28;20029;-82
2022/03/30 01:58:30;;;;;;;3.42;2.78;;;;;;;-143.85;100.00;70650.75;5033641;28;20469;-81
2022/03/30 02:00:57;;;;;;;3.17;0.77;;;;;;;-143.85;100.00;70650.75;5048876;28;20041;-81
2022/03/30 02:03:23;;;;;;;4.03;3.70;;;;;;;-143.85;100.00;70650.75;5033418;28;20028;-81
2022/03/30 02:05:48;;;;;;;3.58;3.28;;;;;;;-143.85;100.00;70650.75;5034780;28;20100;-81
2022/03/30 02:08:14;;;;;;;1.10;1.10;;;;;;;-143.85;100.00;70650.75;5034201;28;20117;-81
2022/03/30 02:10:40;;;;;;;1.27;1.27;;;;;;;-143.85;100.00;70650.75;5034740;28;20026;-80
2022/03/30 02:13:05;;;;;;;6.18;1.88;;;;;;;-143.85;100.00;70650.75;5033535;28;20029;-81
2022/03/30 02:15:31;;;;;;;0.60;0.60;;;;;;;-143.85;100.00;70650.75;5034450;28;20492;-80
2022/03/30 02:17:58;;;;;;;1.65;1.55;;;;;;;-143.85;100.00;70650.75;5033243;28;20095;-81
2022/03/30 02:20:25;;;;;;;3.10;1.83;;;;;;;-143.85;100.00;70650.75;5033240;28;20411;-81
2022/03/30 02:22:50;;;;;;;1.10;1.08;;;;;;;-143.85;100.00;70650.75;5034293;28;20032;-81
2022/03/30 02:25:15;;;;;;;0.57;0.57;;;;;;;-143.85;100.00;70650.75;5032920;28;20021;-81
2022/03/30 02:27:41;;;;;;;0.57;0.57;;;;;;;-143.85;100.00;70650.75;5033130;28;20032;-81
2022/03/30 02:30:08;;;;;;;3.33;2.15;;;;;;;-143.85;100.00;70650.75;5034216;28;20431;-80
2022/03/30 02:32:36;;;;;;;1.83;1.73;;;;;;;-143.85;100.00;70650.75;5033658;28;20040;-81
2022/03/30 02:35:02;;;;;;;1.63;1.53;;;;;;;-143.85;100.00;70650.75;5032975;28;20033;-81
2022/03/30 02:37:28;;;;;;;2.05;1.95;;;;;;;-143.85;100.00;70650.75;5032876;28;20021;-81
2022/03/30 02:39:53;;;;;;;1.75;1.60;;;;;;;-143.85;100.00;70650.75;5032751;28;20051;-81
2022/03/30 02:42:19;;;;;;;2.30;2.10;;;;;;;-143.85;100.00;70650.75;5032779;28;20021;-81
2022/03/30 02:44:44;;;;;;;2.58;2.45;;;;;;;-143.85;100.00;70650.75;5034011;28;20075;-82
2022/03/30 02:47:10;;;;;;;1.58;1.48;;;;;;;-143.85;100.00;70650.75;5033224;28;20059;-82
2022/03/30 02:49:36;;;;;;;1.55;1.48;;;;;;;-143.85;100.00;70650.75;5033784;28;20017;-82
2022/03/30 02:52:03;;;;;;;1.05;1.05;;;;;;;-143.85;100.00;70650.75;5034090;28;20045;-82
2022/03/30 02:54:28;;;;;;;1.00;1.00;;;;;;;-143.85;100.00;70650.75;5032958;28;20025;-82
2022/03/30 02:56:54;;;;;;;1.70;1.60;;;;;;;-143.85;100.00;70650.75;5033587;28;20079;-81
2022/03/30 02:59:19;;;;;;;2.58;2.38;;;;;;;-143.85;100.00;70650.75;5033916;28;20052;-81
2022/03/30 03:01:45;;;;;;;7.13;1.50;;;;;;;-143.85;100.00;70650.75;5032211;28;20041;-82
2022/03/30 03:04:10;;;;;;;1.83;1.73;;;;;;;-143.85;100.00;70650.75;5033486;28;20025;-82
2022/03/30 03:06:36;;;;;;;1.33;1.17;;;;;;;-143.85;100.00;70650.75;5032397;28;20043;-81
2022/03/30 03:09:03;;;;;;;0.85;0.85;;;;;;;-143.85;100.00;70650.75;5033570;28;20048;-82
2022/03/30 03:11:29;;;;;;;3.57;2.40;;;;;;;-143.85;100.00;70650.75;5032195;28;20032;-83
2022/03/30 03:13:54;;;;;;;2.13;1.35;;;;;;;-143.85;100.00;70650.75;5032395;28;20108;-82
2022/03/30 03:16:20;;;;;;;0.77;0.77;;;;;;;-143.85;100.00;70650.75;5034114;28;20029;-83
2022/03/30 03:18:46;;;;;;;6.07;1.58;;;;;;;-143.85;100.00;70650.75;5032249;28;20377;-82
2022/03/30 03:21:12;;;;;;;0.85;0.85;;;;;;;-143.85;100.00;70650.75;5032514;28;20032;-82
2022/03/30 03:23:37;;;;;;;0.77;0.77;;;;;;;-143.85;100.00;70650.75;5032373;28;20025;-85
2022/03/30 03:26:03;;;;;;;2.17;2.00;;;;;;;-143.85;100.00;70650.75;5033665;28;20029;-81
2022/03/30 03:28:28;;;;;;;2.38;2.13;;;;;;;-143.85;100.00;70650.75;5049223;28;20040;-83
2022/03/30 03:30:54;;;;;;;3.58;3.15;;;;;;;-143.85;100.00;70650.75;5031852;28;20029;-81
2022/03/30 03:33:20;;;;;;;5.50;2.33;;;;;;;-143.85;100.00;70650.75;5032093;28;20064;-81
2022/03/30 03:35:47;;;;;;;2.10;1.35;;;;;;;-143.85;100.00;70650.75;5032038;28;20022;-82
2022/03/30 03:38:12;;;;;;;0.68;0.68;;;;;;;-143.85;100.00;70650.75;5031998;28;20050;-80
2022/03/30 03:40:39;;;;;;;1.27;1.27;;;;;;;-143.85;100.00;70650.75;5031837;28;20485;-81
2022/03/30 03:43:05;;;;;;;1.73;1.63;;;;;;;-143.85;100.00;70650.75;5033010;28;20017;-80
2022/03/30 03:45:31;;;;;;;5.95;2.08;;;;;;;-143.85;100.00;70650.75;5031633;28;20048;-80
2022/03/30 03:47:57;;;;;;;1.60;1.52;;;;;;;-143.85;100.00;70650.75;5031435;28;20175;-80
2022/03/30 03:50:23;;;;;;;1.33;1.33;;;;;;;-143.85;100.00;70650.75;5033005;28;20071;-80
2022/03/30 03:52:49;;;;;;;1.80;1.08;;;;;;;-143.85;100.00;70650.75;5031770;28;20026;-82
2022/03/30 03:55:14;;;;;;;2.45;1.42;;;;;;;-143.85;100.00;70650.75;5033020;28;20030;-82
2022/03/30 03:57:41;;;;;;;3.13;2.92;;;;;;;-143.85;100.00;70650.75;5031826;28;20032;-82
2022/03/30 04:00:09;;;;;;;0.75;0.75;;;;;;;-143.85;100.00;70650.75;5031459;28;20049;-83
2022/03/30 04:02:34;;;;;;;2.00;1.90;;;;;;;-143.85;100.00;70650.75;5032394;28;20021;-83
2022/03/30 04:05:00;;;;;;;1.70;1.67;;;;;;;-143.85;100.00;70650.75;5031886;28;20021;-84
2022/03/30 04:07:26;;;;;;;2.75;1.80;;;;;;;-143.85;100.00;70650.75;5031619;28;20075;-81
2022/03/30 04:09:51;;;;;;;1.77;1.10;;;;;;;-143.85;100.00;70650.75;5031819;28;20052;-80
2022/03/30 04:12:17;;;;;;;0.82;0.82;;;;;;;-143.85;100.00;70650.75;5032829;28;20017;-81
2022/03/30 04:14:42;;;;;;;4.45;2.75;;;;;;;-143.85;100.00;70650.75;5031613;28;20056;-81
2022/03/30 04:17:07;;;;;;;2.25;2.15;;;;;;;-143.85;100.00;70650.75;5031737;28;20026;-81
2022/03/30 04:19:33;;;;;;;2.80;2.65;;;;;;;-143.85;100.00;70650.75;5048087;28;20498;-82
2022/03/30 04:21:59;;;;;;;7.32;2.03;;;;;;;-143.85;100.00;70650.75;5031536;28;20462;-82
2022/03/30 04:24:24;;;;;;;1.00;0.98;;;;;;;-143.85;100.00;70650.75;5034136;28;20090;-81
2022/03/30 04:26:50;;;;;;;1.45;1.35;;;;;;;-143.85;100.00;70650.75;5036616;28;20393;-82
2022/03/30 04:29:15;;;;;;;2.25;1.98;;;;;;;-143.85;100.00;70650.75;5035591;28;20022;-81
2022/03/30 04:31:41;;;;;;;0.70;0.70;;;;;;;-143.85;100.00;70650.75;5034948;28;20469;-82
2022/03/30 04:34:07;;;;;;;0.65;0.60;;;;;;;-143.85;100.00;70650.75;5035714;28;20025;-82
2022/03/30 04:36:32;;;;;;;0.95;0.95;;;;;;;-143.85;100.00;70650.75;5035141;28;20014;-82
2022/03/30 04:38:58;;;;;;;0.70;0.70;;;;;;;-143.85;100.00;70650.75;5036393;28;20021;-81
2022/03/30 04:41:23;;;;;;;4.30;2.88;;;;;;;-143.85;100.00;70650.75;5051504;28;20045;-81
2022/03/30 04:43:49;;;;;;;2.83;1.23;;;;;;;-143.85;100.00;70650.75;5035785;28;20025;-82
2022/03/30 04:46:14;;;;;;;1.05;1.05;;;;;;;-143.85;100.00;70650.75;5037587;28;20030;-81
2022/03/30 04:48:40;;;;;;;2.38;2.25;;;;;;;-143.85;100.00;70650.75;5035134;28;20476;-80
2022/03/30 04:51:06;;;;;;;2.22;1.63;;;;;;;-143.85;100.00;70650.75;5036016;28;20389;-80
2022/03/30 04:53:31;;;;;;;3.15;2.95;;;;;;;-143.85;100.00;70650.75;5034886;28;20413;-79
2022/03/30 04:55:57;;;;;;;1.33;1.33;;;;;;;-143.85;100.00;70650.75;5035956;28;20025;-79
2022/03/30 04:58:22;;;;;;;0.63;0.63;;;;;;;-143.85;100.00;70650.75;5034884;28;20025;-80
2022/03/30 05:00:48;;;;;;;3.25;2.85;;;;;;;-143.85;100.00;70650.75;5034140;28;20049;-80
2022/03/30 05:03:14;;;;;;;1.58;1.52;;;;;;;-143.85;100.00;70650.75;5035912;28;20032;-78
2022/03/30 05:05:40;;;;;;;1.20;1.20;;;;;;;-143.85;100.00;70650.75;5035677;28;20032;-78
2022/03/30 05:08:05;;;;;;;3.83;3.08;;;;;;;-143.85;100.00;70650.75;5034361;28;20369;-80
2022/03/30 05:10:31;;;;;;;3.65;3.30;;;;;;;-143.85;100.00;70650.75;5034891;28;20021;-79
2022/03/30 05:12:58;;;;;;;2.65;2.35;;;;;;;-143.85;100.00;70650.75;5051796;28;20057;-78
2022/03/30 05:15:24;;;;;;;4.72;1.67;;;;;;;-143.85;100.00;70650.75;5034134;28;20022;-79
2022/03/30 05:17:50;;;;;;;1.48;1.38;;;;;;;-143.85;100.00;70650.75;5035306;28;20025;-80
2022/03/30 05:20:17;;;;;;;1.52;1.42;;;;;;;-143.85;100.00;70650.75;5034201;28;20079;-79
2022/03/30 05:22:45;;;;;;;1.70;1.60;;;;;;;-143.85;100.00;70650.75;5034063;28;20021;-79
2022/03/30 05:25:19;;;;;;;2.97;1.90;;;;;;;-143.85;100.00;70650.75;5035555;28;20256;-80
2022/03/30 05:27:45;;;;;;;4.85;1.48;;;;;;;-143.85;100.00;70650.75;5034500;28;20116;-80
2022/03/30 05:30:11;;;;;;;2.90;1.52;;;;;;;-143.85;100.00;70650.75;5034194;28;20041;-80
2022/03/30 05:32:36;;;;;;;3.00;1.30;;;;;;;-143.85;100.00;70650.75;5033996;28;20467;-79
2022/03/30 05:35:04;;;;;;;1.45;1.35;;;;;;;-143.85;100.00;70650.75;5034681;28;20056;-79
2022/03/30 05:37:30;;;;;;;1.80;0.85;;;;;;;-143.85;100.00;70650.75;5033702;28;20021;-78
2022/03/30 05:39:56;;;;;;;2.05;1.88;;;;;;;-143.85;100.00;70650.75;5034133;28;20026;-78
2022/03/30 05:42:22;;;;;;;3.80;2.33;;;;;;;-143.85;100.00;70650.75;5034385;28;20029;-78
2022/03/30 05:44:48;;;;;;;1.70;1.60;;;;;;;-143.85;100.00;70650.75;5034762;28;20021;-78
2022/03/30 05:47:14;;;;;;;1.48;1.23;;;;;;;-143.85;100.00;70650.75;5033416;28;20026;-79
2022/03/30 05:49:40;;;;;;;3.90;2.53;;;;;;;-143.85;100.00;70650.75;5033476;28;20104;-77
2022/03/30 05:52:07;;;;;;;2.03;1.90;;;;;;;-143.85;100.00;70650.75;5034221;28;20112;-77
2022/03/30 05:54:33;;;;;;;3.45;3.00;;;;;;;-143.85;100.00;70650.75;5034666;28;20033;-77
2022/03/30 05:57:01;;;;;;;1.30;1.30;;;;;;;-143.85;100.00;70650.75;5033322;28;20030;-77
2022/03/30 05:59:36;;;;;;;4.60;2.67;;;;;;;-143.85;100.00;70650.75;5033418;28;20130;-78
2022/03/30 06:02:04;;;;;;;3.42;2.75;;;;;;;-143.85;100.00;70650.75;5033322;28;20458;-77
2022/03/30 06:04:30;;;;;;;5.63;3.25;;;;;;;-143.85;100.00;70650.75;5033284;28;20017;-78
2022/03/30 06:06:56;;;;;;;1.80;1.25;;;;;;;-143.85;100.00;70650.75;5033253;28;20027;-79
2022/03/30 06:09:22;;;;;;;2.10;1.88;;;;;;;-143.85;100.00;70650.75;5034114;28;20025;-78
2022/03/30 06:11:48;;;;;;;3.30;2.42;;;;;;;-143.85;100.00;70650.75;5034238;28;20079;-78
2022/03/30 06:14:14;;;;;;;3.20;1.33;;;;;;;-143.85;100.00;70650.75;5033778;28;20450;-78
2022/03/30 06:16:41;;;;;;;5.95;2.83;;;;;;;-143.85;100.00;70650.75;5032590;28;20117;-78
2022/03/30 06:19:09;;;;;;;2.28;1.70;;;;;;;-143.85;100.00;70650.75;5033192;28;20079;-79
2022/03/30 06:21:34;;;;;;;6.43;4.15;;;;;;;-143.85;100.00;70650.75;5032196;28;20037;-79
2022/03/30 06:24:01;;;;;;;4.28;2.25;;;;;;;-143.85;100.00;70650.75;5032560;28;20049;-79
2022/03/30 06:26:27;;;;;;;2.15;1.95;;;;;;;-143.85;100.00;70650.75;5031932;28;20029;-79
2022/03/30 06:28:53;;;;;;;4.47;2.25;;;;;;;-143.85;100.00;70650.75;5031929;28;20025;-80
2022/03/30 06:31:19;;;;;;;3.65;1.88;;;;;;;-143.85;100.00;70650.75;5032336;28;20040;-80
2022/03/30 06:34:15;;;;;;;4.15;3.20;;;;;;;-143.85;100.00;70650.75;5033643;28;20592;-81
2022/03/30 06:36:40;;;;;;;2.05;1.58;;;;;;;-143.85;100.00;70650.75;4981028;28;20529;-78
2022/03/30 06:39:06;;;;;;;1.77;1.65;;;;;;;-143.85;100.00;70650.75;5032742;28;20021;-78
2022/03/30 06:41:32;;;;;;;8.48;3.00;;;;;;;-143.85;100.00;70650.75;5031911;28;20488;-78
2022/03/30 06:43:58;;;;;;;3.67;1.88;;;;;;;-143.85;100.00;70650.75;5032672;28;20045;-78
2022/03/30 06:46:24;;;;;;;4.60;2.65;;;;;;;-143.85;100.00;70650.75;5031772;28;20035;-78
2022/03/30 06:48:49;;;;;;;3.03;2.72;;;;;;;-143.85;100.00;70650.75;5032078;28;20021;-79
2022/03/30 06:51:15;;;;;;;10.30;2.85;;;;;;;-143.85;100.00;70650.75;5049565;28;20080;-77
2022/03/30 06:53:42;;;;;;;7.57;4.00;;;;;;;-143.85;100.00;70650.75;5032022;28;20469;-78
2022/03/30 06:56:08;;;;;;;14.50;3.35;;;;;;;-143.85;100.00;70650.75;5032528;28;20021;-81
2022/03/30 06:58:34;;;;;;;6.25;3.70;;;;;;;-143.85;100.00;70650.75;5032913;28;20029;-79
2022/03/30 07:01:00;;;;;;;3.60;2.30;;;;;;;-143.85;100.00;70650.75;5032361;28;20048;-79
2022/03/30 07:03:28;;;;;;;5.38;2.78;;;;;;;-143.85;100.00;70650.75;5032220;28;20013;-78
2022/03/30 07:05:55;;;;;;;3.53;1.20;;;;;;;-143.85;100.00;70650.75;5033434;28;20095;-80
2022/03/30 07:11:04;;;;;;;2.70;2.25;;;;;;;-143.85;100.00;70650.75;5033513;28;20059;-82
